createdAt,value
2019-04-16T00:02:00.259Z,16.27
2019-04-16T00:04:41.543Z,15.08
2019-04-16T00:07:28.161Z,14.60
2019-04-16T00:10:15.062Z,15.18
2019-04-16T00:12:52.781Z,15.68
2019-04-16T00:15:22.706Z,16.30
2019-04-16T00:17:52.638Z,15.53
2019-04-16T00:20:22.648Z,15.28
2019-04-16T00:23:03.227Z,17.32
2019-04-16T00:25:33.490Z,16.95
2019-04-16T00:28:03.439Z,16.87
2019-04-16T00:30:35.656Z,16.90
2019-04-16T00:33:07.524Z,19.15
2019-04-16T00:35:36.698Z,18.02
2019-04-16T00:38:06.640Z,17.85
2019-04-16T00:40:36.586Z,16.67
2019-04-16T00:43:06.504Z,17.15
2019-04-16T00:45:36.548Z,16.12
2019-04-16T00:48:06.484Z,15.45
2019-04-16T00:50:36.417Z,14.95
2019-04-16T00:53:08.317Z,14.90
2019-04-16T00:55:38.016Z,14.15
2019-04-16T00:58:07.920Z,14.73
2019-04-16T01:00:37.793Z,15.63
2019-04-16T01:03:07.827Z,15.88
2019-04-16T01:05:37.767Z,15.93
2019-04-16T01:08:07.594Z,15.45
2019-04-16T01:10:37.439Z,17.10
2019-04-16T01:13:07.464Z,21.95
2019-04-16T01:15:37.495Z,18.23
2019-04-16T01:18:08.880Z,18.57
2019-04-16T01:20:40.465Z,18.82
2019-04-16T01:23:10.676Z,19.12
2019-04-16T01:25:40.611Z,19.70
2019-04-16T01:28:31.944Z,19.67
2019-04-16T01:31:08.119Z,19.17
2019-04-16T01:33:48.974Z,20.37
2019-04-16T01:36:36.832Z,20.10
2019-04-16T01:39:17.406Z,22.85
2019-04-16T01:41:40.466Z,19.92
2019-04-16T01:44:10.434Z,22.82
2019-04-16T01:46:40.319Z,20.32
2019-04-16T01:49:11.534Z,21.68
2019-04-16T01:51:41.632Z,21.60
2019-04-16T01:54:11.678Z,23.12
2019-04-16T01:56:41.607Z,21.97
2019-04-16T01:59:11.436Z,23.35
2019-04-16T02:01:43.391Z,20.92
2019-04-16T02:04:13.149Z,20.80
2019-04-16T02:06:43.191Z,21.05
2019-04-16T02:09:22.246Z,19.00
2019-04-16T02:11:44.806Z,21.17
2019-04-16T02:14:17.957Z,23.27
2019-04-16T02:16:46.501Z,21.45
2019-04-16T02:19:16.545Z,19.23
2019-04-16T02:21:46.469Z,20.72
2019-04-16T02:24:18.830Z,22.70
2019-04-16T02:26:48.178Z,21.87
2019-04-16T02:29:18.225Z,21.17
2019-04-16T02:31:51.785Z,25.30
2019-04-16T02:34:19.837Z,25.05
2019-04-16T02:36:49.766Z,25.77
2019-04-16T02:39:25.757Z,23.20
2019-04-16T02:41:56.988Z,22.37
2019-04-16T02:44:23.056Z,26.42
2019-04-16T02:46:52.980Z,26.85
2019-04-16T02:49:24.898Z,27.07
2019-04-16T02:52:02.019Z,26.80
2019-04-16T02:54:34.349Z,25.30
2019-04-16T02:57:06.559Z,25.35
2019-04-16T02:59:38.319Z,27.37
2019-04-16T03:02:28.079Z,29.27
2019-04-16T03:05:11.940Z,33.23
2019-04-16T03:07:41.763Z,36.70
2019-04-16T03:10:13.635Z,39.03
2019-04-16T03:12:43.465Z,41.65
2019-04-16T03:15:15.039Z,40.58
2019-04-16T03:17:45.798Z,40.85
2019-04-16T03:20:17.569Z,39.45
2019-04-16T03:22:47.499Z,44.23
2019-04-16T03:25:17.332Z,43.95
2019-04-16T03:27:47.379Z,39.10
2019-04-16T03:30:17.918Z,41.45
2019-04-16T03:35:25.410Z,39.85
2019-04-16T03:37:52.328Z,38.17
2019-04-16T03:40:25.568Z,39.40
2019-04-16T03:42:58.888Z,35.55
2019-04-16T03:45:25.611Z,31.93
2019-04-16T03:47:55.656Z,31.57
2019-04-16T03:50:30.980Z,31.17
2019-04-16T03:52:57.259Z,30.68
2019-04-16T03:55:27.203Z,33.95
2019-04-16T03:57:57.115Z,33.65
2019-04-16T04:00:27.058Z,33.88
2019-04-16T04:02:57.092Z,38.50
2019-04-16T04:05:27.028Z,37.30
2019-04-16T04:07:57.065Z,33.98
2019-04-16T04:10:30.747Z,32.15
2019-04-16T04:12:58.673Z,31.10
2019-04-16T04:15:28.612Z,32.88
2019-04-16T04:17:58.641Z,34.83
2019-04-16T04:20:28.581Z,33.02
2019-04-16T04:22:58.618Z,32.13
2019-04-16T04:25:28.553Z,32.78
2019-04-16T04:27:59.711Z,37.98
2019-04-16T04:30:29.723Z,49.42
2019-04-16T04:33:00.190Z,35.38
2019-04-16T04:35:31.656Z,32.30
2019-04-16T04:40:44.463Z,35.43
2019-04-16T04:43:05.455Z,34.10
2019-04-16T04:45:40.922Z,37.48
2019-04-16T04:48:11.473Z,32.45
2019-04-16T04:50:43.447Z,34.88
2019-04-16T04:53:15.646Z,36.53
2019-04-16T04:55:48.326Z,34.90
2019-04-16T04:58:18.261Z,39.08
2019-04-16T05:00:48.803Z,30.82
2019-04-16T05:03:39.921Z,34.50
2019-04-16T05:06:12.197Z,37.17
2019-04-16T05:08:42.421Z,29.45
2019-04-16T05:11:15.245Z,34.25
2019-04-16T05:13:44.765Z,28.30
2019-04-16T05:18:47.077Z,24.82
2019-04-16T05:21:19.347Z,31.33
2019-04-16T05:23:49.517Z,30.00
2019-04-16T05:26:22.274Z,28.47
2019-04-16T05:29:19.781Z,31.10
2019-04-16T05:31:54.574Z,30.23
2019-04-16T05:34:25.585Z,33.38
2019-04-16T05:36:56.120Z,29.90
2019-04-16T05:41:58.670Z,35.75
2019-04-16T05:44:33.205Z,38.67
2019-04-16T05:47:00.858Z,31.68
2019-04-16T05:49:31.612Z,30.52
2019-04-16T05:52:03.757Z,33.18
2019-04-16T05:54:36.593Z,38.28
2019-04-16T05:57:15.332Z,38.73
2019-04-16T05:59:45.259Z,37.85
2019-04-16T06:02:21.026Z,37.83
2019-04-16T06:04:55.587Z,34.20
2019-04-16T06:07:24.429Z,32.83
2019-04-16T06:09:55.535Z,31.33
2019-04-16T06:12:32.376Z,31.87
2019-04-16T06:15:22.570Z,31.23
2019-04-16T06:18:07.951Z,30.30
2019-04-16T06:20:43.136Z,29.40
2019-04-16T06:23:17.402Z,28.75
2019-04-16T06:25:50.572Z,33.67
2019-04-16T06:28:23.180Z,30.35
2019-04-16T06:30:58.328Z,30.20
2019-04-16T06:33:41.739Z,27.70
2019-04-16T06:36:29.290Z,29.45
2019-04-16T06:39:00.840Z,28.15
2019-04-16T06:41:41.565Z,30.45
2019-04-16T06:44:07.190Z,31.90
2019-04-16T06:46:40.560Z,30.30
2019-04-16T06:49:28.406Z,28.98
2019-04-16T06:52:03.531Z,29.63
2019-04-16T06:54:51.796Z,29.02
2019-04-16T06:57:26.781Z,28.87
2019-04-16T06:59:59.557Z,31.73
2019-04-16T07:03:01.284Z,29.12
2019-04-16T07:05:33.462Z,30.45
2019-04-16T07:08:37.142Z,31.48
2019-04-16T07:11:03.578Z,48.13
2019-04-16T07:13:34.093Z,36.08
2019-04-16T07:16:08.608Z,33.08
2019-04-16T07:18:39.363Z,26.73
2019-04-16T07:21:11.235Z,29.48
2019-04-16T07:23:45.244Z,28.02
2019-04-16T07:26:15.238Z,23.70
2019-04-16T07:28:47.578Z,27.58
2019-04-16T07:31:32.695Z,26.17
2019-04-16T07:34:12.309Z,34.90
2019-04-16T07:36:50.093Z,33.90
2019-04-16T07:39:29.699Z,36.70
2019-04-16T07:42:20.875Z,50.90
2019-04-16T07:45:02.477Z,51.75
2019-04-16T07:50:46.652Z,50.40
2019-04-16T07:53:32.862Z,46.15
2019-04-16T07:56:16.079Z,40.33
2019-04-16T07:58:45.924Z,49.53
2019-04-16T08:01:16.466Z,64.67
2019-04-16T08:03:46.383Z,92.53
2019-04-16T08:06:16.261Z,51.18
2019-04-16T08:08:46.578Z,24.65
2019-04-16T08:11:17.392Z,29.87
2019-04-16T08:13:47.297Z,40.88
2019-04-16T08:16:17.060Z,36.63
2019-04-16T08:18:50.533Z,27.85
2019-04-16T08:21:22.521Z,20.90
2019-04-16T08:23:53.575Z,20.82
2019-04-16T08:26:23.484Z,17.75
2019-04-16T08:28:53.433Z,21.62
2019-04-16T08:31:25.544Z,16.12
2019-04-16T08:33:55.226Z,14.90
2019-04-16T08:36:25.121Z,12.00
2019-04-16T08:38:54.984Z,14.60
2019-04-16T08:41:24.879Z,12.18
2019-04-16T08:43:55.107Z,12.90
2019-04-16T08:46:28.063Z,10.18
2019-04-16T08:48:56.656Z,14.28
2019-04-16T08:51:30.813Z,12.70
2019-04-16T08:53:58.118Z,12.53
2019-04-16T08:56:28.074Z,23.70
2019-04-16T08:59:01.171Z,26.52
2019-04-16T09:01:31.123Z,25.05
2019-04-16T09:04:02.758Z,33.28
2019-04-16T09:06:32.656Z,15.95
2019-04-16T09:09:12.408Z,9.85
2019-04-16T09:11:37.293Z,10.50
2019-04-16T09:14:07.928Z,13.28
2019-04-16T09:19:21.310Z,8.53
2019-04-16T09:21:51.606Z,9.10
2019-04-16T09:24:28.851Z,8.60
2019-04-16T09:27:01.248Z,8.43
2019-04-16T09:29:44.600Z,8.43
2019-04-16T09:32:32.405Z,8.25
2019-04-16T09:35:14.550Z,12.85
2019-04-16T09:37:44.606Z,9.93
2019-04-16T09:40:31.340Z,8.33
2019-04-16T09:43:15.688Z,7.45
2019-04-16T09:45:43.555Z,7.45
2019-04-16T09:48:15.139Z,7.50
2019-04-16T09:50:47.893Z,8.53
2019-04-16T09:53:16.451Z,8.90
2019-04-16T09:55:47.593Z,13.45
2019-04-16T09:58:21.796Z,9.80
2019-04-16T10:00:52.735Z,12.03
2019-04-16T10:03:36.273Z,11.15
2019-04-16T10:06:08.665Z,9.65
2019-04-16T10:08:38.513Z,9.75
2019-04-16T10:11:08.420Z,10.82
2019-04-16T10:13:38.164Z,9.23
2019-04-16T10:16:09.610Z,8.10
2019-04-16T10:18:39.462Z,8.23
2019-04-16T10:21:09.344Z,7.58
2019-04-16T10:23:43.604Z,7.15
2019-04-16T10:26:13.925Z,8.25
2019-04-16T10:28:47.946Z,6.90
2019-04-16T10:31:19.414Z,7.78
2019-04-16T10:33:49.243Z,6.08
2019-04-16T10:36:19.107Z,6.15
2019-04-16T10:38:51.746Z,7.00
2019-04-16T10:41:29.038Z,6.08
2019-04-16T10:44:03.317Z,6.70
2019-04-16T10:46:38.468Z,5.50
2019-04-16T10:49:11.349Z,4.62
2019-04-16T10:52:00.669Z,5.37
2019-04-16T10:54:38.297Z,6.17
2019-04-16T10:57:26.948Z,5.40
2019-04-16T11:00:16.313Z,6.35
2019-04-16T11:02:53.520Z,4.42
2019-04-16T11:05:25.011Z,5.83
2019-04-16T11:07:56.502Z,7.22
2019-04-16T11:10:26.487Z,8.45
2019-04-16T11:12:56.388Z,6.40
2019-04-16T11:15:27.126Z,5.67
2019-04-16T11:17:57.095Z,6.78
2019-04-16T11:20:26.930Z,6.90
2019-04-16T11:22:56.777Z,7.17
2019-04-16T11:25:26.627Z,6.67
2019-04-16T11:27:56.535Z,8.60
2019-04-16T11:30:30.980Z,5.60
2019-04-16T11:33:00.931Z,4.95
2019-04-16T11:35:30.798Z,6.35
2019-04-16T11:38:00.739Z,6.40
2019-04-16T11:40:30.643Z,7.72
2019-04-16T11:43:00.546Z,5.90
2019-04-16T11:45:31.498Z,5.35
2019-04-16T11:48:01.411Z,6.08
2019-04-16T11:50:31.411Z,7.30
2019-04-16T11:53:01.268Z,7.45
2019-04-16T11:55:31.266Z,8.08
2019-04-16T11:58:01.134Z,9.95
2019-04-16T12:00:38.549Z,10.03
2019-04-16T12:03:17.421Z,11.12
2019-04-16T12:05:57.934Z,11.18
2019-04-16T12:08:38.327Z,16.97
2019-04-16T12:11:12.540Z,13.70
2019-04-16T12:13:49.704Z,17.27
2019-04-16T12:16:37.430Z,14.38
2019-04-16T12:19:26.876Z,12.55
2019-04-16T12:22:16.370Z,9.88
2019-04-16T12:25:04.112Z,11.08
2019-04-16T12:27:35.618Z,12.18
2019-04-16T12:30:26.393Z,11.03
2019-04-16T12:35:50.765Z,11.03
2019-04-16T12:38:28.246Z,11.50
2019-04-16T12:41:08.700Z,9.88
2019-04-16T12:43:40.174Z,14.90
2019-04-16T12:46:11.593Z,15.43
2019-04-16T12:48:55.154Z,14.65
2019-04-16T12:51:41.572Z,13.28
2019-04-16T12:54:13.099Z,17.37
2019-04-16T12:56:53.722Z,16.32
2019-04-16T12:59:37.352Z,13.32
2019-04-16T13:02:17.473Z,13.22
2019-04-16T13:04:49.510Z,13.48
2019-04-16T13:07:39.119Z,16.23
2019-04-16T13:10:11.007Z,19.73
2019-04-16T13:12:42.649Z,16.05
2019-04-16T13:15:17.425Z,15.65
2019-04-16T13:18:05.116Z,15.75
2019-04-16T13:20:45.192Z,14.90
2019-04-16T13:23:38.154Z,16.05
2019-04-16T13:26:27.767Z,18.87
2019-04-16T13:28:59.254Z,14.65
2019-04-16T13:31:32.311Z,13.50
2019-04-16T13:34:02.103Z,13.95
2019-04-16T13:36:32.673Z,12.15
2019-04-16T13:39:09.967Z,14.80
2019-04-16T13:41:42.588Z,11.05
2019-04-16T13:44:26.157Z,12.80
2019-04-16T13:47:02.951Z,12.30
2019-04-16T13:49:34.953Z,10.65
2019-04-16T13:52:17.066Z,9.98
2019-04-16T13:55:01.498Z,9.88
2019-04-16T13:57:34.330Z,12.85
2019-04-16T14:00:09.870Z,10.05
2019-04-16T14:02:47.728Z,11.73
2019-04-16T14:05:17.981Z,10.85
2019-04-16T14:07:47.800Z,9.78
2019-04-16T14:10:17.751Z,11.40
2019-04-16T14:12:47.713Z,15.40
2019-04-16T14:15:31.184Z,15.78
2019-04-16T14:17:53.111Z,14.78
2019-04-16T14:20:22.515Z,13.00
2019-04-16T14:22:53.660Z,15.00
2019-04-16T14:25:24.062Z,15.08
2019-04-16T14:27:55.997Z,14.33
2019-04-16T14:30:28.662Z,17.92
2019-04-16T14:33:00.101Z,14.93
2019-04-16T14:35:33.500Z,14.78
2019-04-16T14:38:03.170Z,15.10
2019-04-16T14:40:35.473Z,13.62
2019-04-16T14:43:06.802Z,12.03
2019-04-16T14:45:56.992Z,13.08
2019-04-16T14:48:12.825Z,14.25
2019-04-16T14:50:45.888Z,16.60
2019-04-16T14:53:17.371Z,12.30
2019-04-16T14:56:00.669Z,13.50
2019-04-16T14:58:29.326Z,13.93
2019-04-16T15:01:02.235Z,13.28
2019-04-16T15:03:50.041Z,14.20
2019-04-16T15:06:21.453Z,14.93
2019-04-16T15:08:52.819Z,14.40
2019-04-16T15:11:43.528Z,14.47
2019-04-16T15:17:12.749Z,14.73
2019-04-16T15:19:45.582Z,16.73
2019-04-16T15:22:18.684Z,16.67
2019-04-16T15:24:54.632Z,16.23
2019-04-16T15:27:28.248Z,23.15
2019-04-16T15:29:59.444Z,17.00
2019-04-16T15:32:44.903Z,17.07
2019-04-16T15:35:21.723Z,17.90
2019-04-16T15:38:08.328Z,15.48
2019-04-16T15:40:42.630Z,16.27
2019-04-16T15:43:19.147Z,16.17
2019-04-16T15:46:04.312Z,14.40
2019-04-16T15:48:43.766Z,16.67
2019-04-16T15:51:24.074Z,18.67
2019-04-16T15:53:58.634Z,16.95
2019-04-16T15:56:36.190Z,18.02
2019-04-16T15:59:07.729Z,18.35
2019-04-16T16:01:39.170Z,19.92
2019-04-16T16:04:13.447Z,17.12
2019-04-16T16:06:44.955Z,20.27
2019-04-16T16:09:25.297Z,18.67
2019-04-16T16:11:59.750Z,18.32
2019-04-16T16:14:33.050Z,17.55
2019-04-16T16:17:01.115Z,19.23
2019-04-16T16:19:31.005Z,19.20
2019-04-16T16:22:01.829Z,15.80
2019-04-16T16:24:31.756Z,20.08
2019-04-16T16:27:01.695Z,27.07
2019-04-16T16:29:31.549Z,20.43
2019-04-16T16:32:01.332Z,23.55
2019-04-16T16:34:31.206Z,21.17
2019-04-16T16:37:00.964Z,21.75
2019-04-16T16:39:30.885Z,29.23
2019-04-16T16:42:00.927Z,24.00
2019-04-16T16:44:30.855Z,23.07
2019-04-16T16:47:18.888Z,25.62
2019-04-16T16:49:48.815Z,24.25
2019-04-16T16:52:20.281Z,31.45
2019-04-16T16:54:51.686Z,21.95
2019-04-16T16:57:23.221Z,23.75
2019-04-16T17:00:00.563Z,23.30
2019-04-16T17:02:32.221Z,32.88
2019-04-16T17:05:03.693Z,23.55
2019-04-16T17:07:33.671Z,23.12
2019-04-16T17:10:04.079Z,24.92
2019-04-16T17:12:33.824Z,23.40
2019-04-16T17:15:03.724Z,31.50
2019-04-16T17:17:33.540Z,48.75
2019-04-16T17:20:03.609Z,43.55
2019-04-16T17:22:36.013Z,59.53
2019-04-16T17:25:10.467Z,36.05
2019-04-16T17:27:50.542Z,31.12
2019-04-16T17:30:10.701Z,28.00
2019-04-16T17:32:43.673Z,28.83
2019-04-16T17:35:15.588Z,30.17
2019-04-16T17:37:43.945Z,30.05
2019-04-16T17:40:18.338Z,32.93
2019-04-16T17:42:50.524Z,28.75
2019-04-16T17:45:38.012Z,35.03
2019-04-16T17:48:18.111Z,104.07
2019-04-16T17:51:05.925Z,72.80
2019-04-16T17:53:43.651Z,67.50
2019-04-16T17:56:33.290Z,52.50
2019-04-16T17:59:16.416Z,47.17
2019-04-16T18:01:54.956Z,40.63
2019-04-16T18:04:46.966Z,44.23
2019-04-16T18:07:34.267Z,37.70
2019-04-16T18:10:10.404Z,39.05
2019-04-16T18:13:01.175Z,46.25
2019-04-16T18:18:06.112Z,28.27
2019-04-16T18:20:40.649Z,26.17
2019-04-16T18:23:30.267Z,19.50
2019-04-16T18:26:01.728Z,15.45
2019-04-16T18:28:48.105Z,15.38
2019-04-16T18:31:23.530Z,15.30
2019-04-16T18:34:10.123Z,15.08
2019-04-16T18:36:44.454Z,19.37
2019-04-16T18:39:37.162Z,14.28
2019-04-16T18:42:11.772Z,15.85
2019-04-16T18:44:59.364Z,13.35
2019-04-16T18:47:40.013Z,12.60
2019-04-16T18:50:12.012Z,12.75
2019-04-16T18:52:41.807Z,12.37
2019-04-16T18:55:11.655Z,17.75
2019-04-16T18:57:41.507Z,11.97
2019-04-16T19:00:32.236Z,14.65
2019-04-16T19:03:02.946Z,12.15
2019-04-16T19:05:32.817Z,12.50
2019-04-16T19:08:02.709Z,10.30
2019-04-16T19:10:32.576Z,11.40
2019-04-16T19:13:11.260Z,9.63
2019-04-16T19:15:41.295Z,11.53
2019-04-16T19:18:19.777Z,10.60
2019-04-16T19:20:43.924Z,11.60
2019-04-16T19:23:13.784Z,12.07
2019-04-16T19:25:44.746Z,11.15
2019-04-16T19:28:14.685Z,11.73
2019-04-16T19:30:44.616Z,32.42
2019-04-16T19:33:14.451Z,19.40
2019-04-16T19:35:44.286Z,12.10
2019-04-16T19:38:17.851Z,26.52
2019-04-16T19:40:50.519Z,22.27
2019-04-16T19:43:19.157Z,98.58
2019-04-16T19:45:49.075Z,24.07
2019-04-16T19:48:34.279Z,71.80
2019-04-16T19:50:50.477Z,17.75
2019-04-16T19:53:21.342Z,51.92
2019-04-16T19:55:51.204Z,29.05
2019-04-16T19:58:21.097Z,48.10
2019-04-16T20:00:54.003Z,23.18
2019-04-16T20:03:22.663Z,33.30
2019-04-16T20:05:53.098Z,86.05
2019-04-16T20:08:22.934Z,32.28
2019-04-16T20:10:53.240Z,24.92
2019-04-16T20:13:24.431Z,54.60
2019-04-16T20:15:54.285Z,48.45
2019-04-16T20:18:30.144Z,51.08
2019-04-16T20:21:01.237Z,52.00
2019-04-16T20:23:31.880Z,25.25
2019-04-16T20:26:01.701Z,22.05
2019-04-16T20:28:32.574Z,17.73
2019-04-16T20:31:04.246Z,16.90
2019-04-16T20:33:34.045Z,17.70
2019-04-16T20:36:03.947Z,15.25
2019-04-16T20:38:33.801Z,15.10
2019-04-16T20:41:03.789Z,15.98
2019-04-16T20:43:33.537Z,14.13
2019-04-16T20:46:03.355Z,15.23
2019-04-16T20:48:33.219Z,20.30
2019-04-16T20:51:03.133Z,16.02
2019-04-16T20:53:32.956Z,21.90
2019-04-16T20:56:02.749Z,15.55
2019-04-16T20:58:32.637Z,17.07
2019-04-16T21:01:03.807Z,19.27
2019-04-16T21:03:33.703Z,14.60
2019-04-16T21:06:07.475Z,17.52
2019-04-16T21:08:35.028Z,16.27
2019-04-16T21:11:08.837Z,16.27
2019-04-16T21:13:36.441Z,13.22
2019-04-16T21:16:06.264Z,19.80
2019-04-16T21:18:36.152Z,18.87
2019-04-16T21:21:07.074Z,19.80
2019-04-16T21:23:36.845Z,27.60
2019-04-16T21:26:06.597Z,24.37
2019-04-16T21:28:38.031Z,25.77
2019-04-16T21:31:12.976Z,25.50
2019-04-16T21:33:44.995Z,25.20
2019-04-16T21:36:25.255Z,35.98
2019-04-16T21:38:56.710Z,26.35
2019-04-16T21:41:28.764Z,25.52
2019-04-16T21:43:58.197Z,32.23
2019-04-16T21:46:27.957Z,30.60
2019-04-16T21:49:01.636Z,29.67
2019-04-16T21:51:31.479Z,37.95
2019-04-16T21:54:01.426Z,45.78
2019-04-16T21:56:31.172Z,40.20
2019-04-16T21:59:04.741Z,41.18
2019-04-16T22:01:36.894Z,43.25
2019-04-16T22:04:13.227Z,42.00
2019-04-16T22:06:39.932Z,44.03
2019-04-16T22:09:11.676Z,44.45
2019-04-16T22:11:44.325Z,49.85
2019-04-16T22:14:14.369Z,48.28
2019-04-16T22:16:44.296Z,45.52
2019-04-16T22:19:14.931Z,49.80
2019-04-16T22:21:45.397Z,51.65
2019-04-16T22:24:15.283Z,57.25
2019-04-16T22:26:45.117Z,54.73
2019-04-16T22:29:15.805Z,62.53
2019-04-16T22:31:46.245Z,61.88
2019-04-16T22:34:16.085Z,63.70
2019-04-16T22:36:45.900Z,67.37
2019-04-16T22:39:23.534Z,65.72
2019-04-16T22:42:07.112Z,71.65
2019-04-16T22:44:53.447Z,78.60
2019-04-16T22:47:27.672Z,75.15
2019-04-16T22:50:14.361Z,81.72
2019-04-16T22:52:29.226Z,83.95
2019-04-16T22:54:59.056Z,93.00
2019-04-16T22:57:30.923Z,91.85
2019-04-16T23:00:00.476Z,94.55
2019-04-16T23:02:31.181Z,92.15
2019-04-16T23:05:01.028Z,89.55
2019-04-16T23:07:30.850Z,93.90
2019-04-16T23:10:00.613Z,98.55
2019-04-16T23:12:30.556Z,91.02
2019-04-16T23:15:00.429Z,85.03
2019-04-16T23:17:30.320Z,82.50
2019-04-16T23:20:00.178Z,93.20
2019-04-16T23:22:29.922Z,85.17
2019-04-16T23:24:59.871Z,87.53
2019-04-16T23:27:29.796Z,89.65
2019-04-16T23:29:59.617Z,85.42
2019-04-16T23:32:29.545Z,80.38
2019-04-16T23:34:59.358Z,89.65
2019-04-16T23:37:29.193Z,83.27
2019-04-16T23:39:59.108Z,89.77
2019-04-16T23:42:29.044Z,78.33
2019-04-16T23:45:16.848Z,86.60
2019-04-16T23:47:57.460Z,86.17
2019-04-16T23:53:07.864Z,86.28
2019-04-16T23:55:37.031Z,86.57
2019-04-16T23:58:14.468Z,87.78
